Time;durP1;ratioP1;P1;durP2;ratioP2;P2;SDS_P1;SDS_P2;PMS_P1;PMS_P2;Temp;Humidity;BMP_temperature;BMP_pressure;BME280_temperature;BME280_humidity;BME280_pressure;Samples;Min_cycle;Max_cycle;Signal;HPM_P1;HPM_P2
2022/05/10 00:02:19;;;;;;;6.93;5.95;;;10.90;99.90;;;;;;4994026;28;20050;-66
2022/05/10 00:04:48;;;;;;;;;;;10.90;99.90;;;;;;4995464;28;20042;-67
2022/05/10 00:07:17;;;;;;;8.07;6.30;;;10.90;99.90;;;;;;5008516;28;19991;-66
2022/05/10 00:09:44;;;;;;;7.75;5.72;;;10.90;99.90;;;;;;4994168;28;20050;-67
2022/05/10 00:12:11;;;;;;;7.70;6.38;;;10.80;99.90;;;;;;4994335;28;20172;-67
2022/05/10 00:14:38;;;;;;;;;;;10.80;99.90;;;;;;4994510;28;20046;-67
2022/05/10 00:17:05;;;;;;;13.43;6.40;;;10.80;99.90;;;;;;4988768;28;19926;-67
2022/05/10 00:19:32;;;;;;;9.43;6.10;;;10.80;99.90;;;;;;4993759;28;20045;-67
2022/05/10 00:21:59;;;;;;;7.95;5.95;;;10.80;99.90;;;;;;4994124;28;20236;-66
2022/05/10 00:24:26;;;;;;;7.68;6.78;;;10.80;99.90;;;;;;4994357;28;20116;-66
2022/05/10 00:26:55;;;;;;;;;;;10.70;99.90;;;;;;4994355;28;20124;-66
2022/05/10 00:29:24;;;;;;;7.53;5.88;;;10.70;99.90;;;;;;4994139;28;19995;-68
2022/05/10 00:31:51;;;;;;;15.40;6.63;;;10.70;99.90;;;;;;4993727;28;20077;-68
2022/05/10 00:34:18;;;;;;;9.85;6.68;;;10.60;99.90;;;;;;4994561;28;20711;-66
2022/05/10 00:36:45;;;;;;;7.45;6.57;;;10.60;99.90;;;;;;4991796;28;20600;-66
2022/05/10 00:39:12;;;;;;;7.53;6.40;;;10.60;99.90;;;;;;4994022;28;20071;-66
2022/05/10 00:42:01;;;;;;;6.68;6.03;;;10.60;99.90;;;;;;4993716;28;20045;-66
2022/05/10 00:44:42;;;;;;;6.72;6.00;;;10.50;99.90;;;;;;4997984;28;20041;-67
2022/05/10 00:47:27;;;;;;;6.78;6.07;;;10.50;99.90;;;;;;4996195;28;20046;-67
2022/05/10 00:50:08;;;;;;;6.32;5.65;;;10.50;99.90;;;;;;4994699;28;20045;-66
2022/05/10 00:52:49;;;;;;;7.35;5.22;;;10.50;99.90;;;;;;4997814;28;20050;-67
2022/05/10 00:55:28;;;;;;;7.35;6.32;;;10.40;99.90;;;;;;4998094;28;20042;-67
2022/05/10 00:58:17;;;;;;;7.72;5.82;;;10.40;99.90;;;;;;4996747;28;20085;-67
2022/05/10 01:00:45;;;;;;;7.03;6.32;;;10.40;99.90;;;;;;4987052;28;20038;-67
2022/05/10 01:03:33;;;;;;;10.52;6.32;;;10.40;99.90;;;;;;4977886;28;20085;-67
2022/05/10 01:06:09;;;;;;;6.82;6.13;;;10.40;99.90;;;;;;4978108;28;20459;-68
2022/05/10 01:08:47;;;;;;;10.48;5.97;;;10.30;99.90;;;;;;4977224;28;20046;-67
2022/05/10 01:11:39;;;;;;;7.82;6.63;;;10.20;99.90;;;;;;4977643;28;20054;-68
2022/05/10 01:14:18;;;;;;;12.05;5.90;;;10.20;99.90;;;;;;4978120;28;20552;-66
2022/05/10 01:16:45;;;;;;;6.95;6.25;;;10.10;99.90;;;;;;4989118;28;20053;-65
2022/05/10 01:19:13;;;;;;;6.90;6.20;;;10.10;99.90;;;;;;4997192;28;20038;-67
2022/05/10 01:21:52;;;;;;;6.50;5.55;;;10.10;99.90;;;;;;4995800;28;20045;-68
2022/05/10 01:24:44;;;;;;;8.52;6.03;;;10.10;99.90;;;;;;4997732;28;20149;-66
2022/05/10 01:27:36;;;;;;;8.52;6.32;;;10.00;99.90;;;;;;4994826;28;20041;-66
2022/05/10 01:30:05;;;;;;;10.25;6.75;;;10.00;99.90;;;;;;5005308;28;20030;-65
2022/05/10 01:35:31;;;;;;;7.40;6.60;;;10.00;99.90;;;;;;4997450;28;20057;-67
2022/05/10 01:38:05;;;;;;;8.30;6.45;;;9.90;99.90;;;;;;4996316;28;20972;-67
2022/05/10 01:40:46;;;;;;;7.45;6.00;;;9.90;99.90;;;;;;4996859;28;20069;-67
2022/05/10 01:43:18;;;;;;;11.73;6.40;;;9.90;99.90;;;;;;4996604;28;20041;-67
2022/05/10 01:46:11;;;;;;;6.85;6.18;;;9.90;99.90;;;;;;4997309;28;20145;-66
2022/05/10 01:48:41;;;;;;;10.70;7.13;;;9.90;99.90;;;;;;4994319;28;20677;-66
2022/05/10 01:51:47;;;;;;;7.57;5.95;;;9.90;99.90;;;;;;4995418;28;20050;-66
2022/05/10 01:54:39;;;;;;;10.52;6.35;;;9.90;99.90;;;;;;4994177;28;20061;-67
2022/05/10 01:57:12;;;;;;;8.50;6.45;;;9.80;99.90;;;;;;4995823;28;20042;-66
2022/05/10 01:59:45;;;;;;;6.97;6.28;;;9.80;99.90;;;;;;4994608;28;20041;-67
2022/05/10 02:02:12;;;;;;;10.50;6.35;;;9.70;99.90;;;;;;4976663;28;20070;-67
2022/05/10 02:04:44;;;;;;;6.50;5.78;;;9.70;99.90;;;;;;4977202;28;20053;-65
2022/05/10 02:07:17;;;;;;;7.72;5.93;;;9.70;99.90;;;;;;4976120;28;20046;-67
2022/05/10 02:09:49;;;;;;;11.32;6.40;;;9.60;99.90;;;;;;4976874;28;20057;-67
2022/05/10 02:12:23;;;;;;;9.88;7.07;;;9.60;99.90;;;;;;4976599;28;20054;-67
2022/05/10 02:14:56;;;;;;;7.85;7.05;;;9.60;99.90;;;;;;4977016;28;20385;-67
2022/05/10 02:17:30;;;;;;;9.85;6.53;;;9.60;99.90;;;;;;4992393;28;20489;-67
2022/05/10 02:20:09;;;;;;;9.32;6.53;;;9.60;99.90;;;;;;4996281;28;20045;-68
2022/05/10 02:23:14;;;;;;;9.00;6.25;;;9.60;99.90;;;;;;4996316;28;20046;-67
2022/05/10 02:25:54;;;;;;;7.75;6.05;;;9.60;99.90;;;;;;4992860;28;20054;-67
2022/05/10 02:28:36;;;;;;;11.48;7.50;;;9.60;99.90;;;;;;4995490;28;20115;-66
2022/05/10 02:31:26;;;;;;;6.97;6.00;;;9.60;99.90;;;;;;4996214;28;20046;-67
2022/05/10 02:33:55;;;;;;;7.20;5.80;;;9.50;99.90;;;;;;4995991;28;20120;-68
2022/05/10 02:36:22;;;;;;;6.75;6.03;;;9.50;99.90;;;;;;4996035;28;20131;-68
2022/05/10 02:38:48;;;;;;;10.77;6.47;;;9.50;99.90;;;;;;4995088;28;20135;-66
2022/05/10 02:41:21;;;;;;;7.95;6.50;;;9.50;99.90;;;;;;4995466;28;20042;-66
2022/05/10 02:44:00;;;;;;;8.63;6.78;;;9.50;99.90;;;;;;4995769;28;20046;-67
2022/05/10 02:46:27;;;;;;;20.05;8.05;;;9.50;99.90;;;;;;4995633;28;20066;-66
2022/05/10 02:48:54;;;;;;;7.93;6.00;;;9.40;99.90;;;;;;4994355;28;20042;-66
2022/05/10 02:51:21;;;;;;;6.55;5.90;;;9.50;99.90;;;;;;4996691;28;20353;-67
2022/05/10 02:53:48;;;;;;;7.82;6.45;;;9.40;99.90;;;;;;4996401;28;20050;-66
2022/05/10 02:56:20;;;;;;;10.07;6.18;;;9.40;99.90;;;;;;4995404;28;20073;-66
2022/05/10 02:58:56;;;;;;;9.65;6.68;;;9.40;99.90;;;;;;4994787;28;20572;-67
2022/05/10 03:01:57;;;;;;;11.05;6.72;;;9.40;99.90;;;;;;4990624;28;20104;-68
2022/05/10 03:04:33;;;;;;;10.40;6.47;;;9.30;99.90;;;;;;4976185;28;20042;-68
2022/05/10 03:07:02;;;;;;;6.53;5.83;;;9.30;99.90;;;;;;4975345;28;20046;-66
2022/05/10 03:09:29;;;;;;;8.65;6.55;;;9.30;99.90;;;;;;4975351;28;20054;-66
2022/05/10 03:11:55;;;;;;;9.32;6.28;;;9.30;99.90;;;;;;4976123;28;20105;-66
2022/05/10 03:14:23;;;;;;;;;;;9.30;99.90;;;;;;4976341;28;20871;-67
2022/05/10 03:16:49;;;;;;;6.93;5.82;;;9.30;99.90;;;;;;4987392;28;19933;-66
2022/05/10 03:19:16;;;;;;;;;;;9.30;99.90;;;;;;4995369;28;20755;-67
2022/05/10 03:21:43;;;;;;;8.02;5.80;;;9.30;99.90;;;;;;4994952;28;19921;-67
2022/05/10 03:24:10;;;;;;;8.02;6.55;;;9.30;99.90;;;;;;4995429;28;20069;-66
2022/05/10 03:26:38;;;;;;;6.68;5.75;;;9.30;99.90;;;;;;4994372;28;20045;-67
2022/05/10 03:29:05;;;;;;;9.80;5.88;;;9.30;99.90;;;;;;4994588;28;20062;-67
2022/05/10 03:31:32;;;;;;;6.72;6.05;;;9.30;99.90;;;;;;4993246;28;20045;-65
2022/05/10 03:36:44;;;;;;;7.72;5.82;;;9.30;99.90;;;;;;4994144;28;20077;-67
2022/05/10 03:39:11;;;;;;;7.75;5.35;;;9.40;99.90;;;;;;4992670;28;20553;-67
2022/05/10 03:41:38;;;;;;;6.50;5.72;;;9.40;99.90;;;;;;4994130;28;20041;-66
2022/05/10 03:44:05;;;;;;;;;;;9.40;99.90;;;;;;4995025;28;20129;-67
2022/05/10 03:46:31;;;;;;;9.40;6.30;;;9.40;99.90;;;;;;5009495;28;20387;-66
2022/05/10 03:48:58;;;;;;;6.88;5.68;;;9.40;99.90;;;;;;4993535;28;20069;-68
2022/05/10 03:51:25;;;;;;;;;;;9.40;99.90;;;;;;4993248;28;20541;-67
2022/05/10 03:53:52;;;;;;;6.65;5.90;;;9.40;99.90;;;;;;4994444;28;20015;-68
2022/05/10 03:56:19;;;;;;;6.35;5.68;;;9.40;99.90;;;;;;4994935;28;20736;-66
2022/05/10 03:58:46;;;;;;;;;;;9.40;99.90;;;;;;4992610;28;20814;-68
2022/05/10 04:01:13;;;;;;;8.88;6.20;;;9.40;99.90;;;;;;4979333;28;19929;-67
2022/05/10 04:03:39;;;;;;;7.80;5.47;;;9.40;99.90;;;;;;4974945;28;20095;-60
2022/05/10 04:06:06;;;;;;;9.10;6.05;;;9.40;99.90;;;;;;4974652;28;20050;-59
2022/05/10 04:08:33;;;;;;;;;;;9.40;99.90;;;;;;4972737;28;20038;-59
2022/05/10 04:11:05;;;;;;;8.90;5.90;;;9.40;99.90;;;;;;4974227;28;19930;-50
2022/05/10 04:13:40;;;;;;;7.22;5.88;;;9.40;99.90;;;;;;4974547;28;20045;-52
2022/05/10 04:16:07;;;;;;;8.82;5.20;;;9.50;99.90;;;;;;4980564;28;20746;-53
2022/05/10 04:18:34;;;;;;;7.32;6.07;;;9.50;99.90;;;;;;4993191;28;20063;-52
2022/05/10 04:21:01;;;;;;;6.72;4.85;;;9.50;99.90;;;;;;4994079;28;20092;-61
2022/05/10 04:23:28;;;;;;;6.15;4.93;;;9.60;99.90;;;;;;4993882;28;20054;-61
2022/05/10 04:26:11;;;;;;;6.88;5.45;;;9.60;99.90;;;;;;4993502;28;20057;-59
2022/05/10 04:28:39;;;;;;;6.47;5.60;;;9.70;99.90;;;;;;4992889;28;20049;-59
2022/05/10 04:31:06;;;;;;;6.30;5.55;;;9.70;99.90;;;;;;4994117;28;20555;-57
2022/05/10 04:33:33;;;;;;;6.15;5.15;;;9.80;99.90;;;;;;4993860;28;20042;-53
2022/05/10 04:35:59;;;;;;;5.93;5.10;;;9.80;99.90;;;;;;4994006;28;20655;-57
2022/05/10 04:38:26;;;;;;;;;;;9.90;99.90;;;;;;4991996;28;20037;-61
2022/05/10 04:43:41;;;;;;;;;;;10.00;99.90;;;;;;4994411;28;20104;-56
2022/05/10 04:46:08;;;;;;;7.22;5.05;;;10.00;99.90;;;;;;4993780;28;19930;-58
2022/05/10 04:48:35;;;;;;;8.02;5.10;;;10.10;99.90;;;;;;4993070;28;20057;-57
2022/05/10 04:51:04;;;;;;;6.97;5.88;;;10.20;99.90;;;;;;4992759;28;20042;-58
2022/05/10 04:53:31;;;;;;;6.70;5.65;;;10.20;99.90;;;;;;4992427;28;20049;-58
2022/05/10 04:55:58;;;;;;;5.88;4.68;;;10.20;99.90;;;;;;4993170;28;20163;-58
2022/05/10 04:58:25;;;;;;;;;;;10.30;99.90;;;;;;4993863;28;20077;-56
2022/05/10 05:00:55;;;;;;;10.25;5.10;;;10.30;99.90;;;;;;4981534;28;19925;-55
2022/05/10 05:03:22;;;;;;;6.18;5.57;;;10.40;99.90;;;;;;4974067;28;20281;-58
2022/05/10 05:05:48;;;;;;;;;;;10.50;99.90;;;;;;4975080;28;20144;-59
2022/05/10 05:08:15;;;;;;;7.00;5.18;;;10.50;99.90;;;;;;4973093;28;19968;-61
2022/05/10 05:10:42;;;;;;;6.07;4.90;;;10.60;99.90;;;;;;4973829;28;20078;-55
2022/05/10 05:13:09;;;;;;;;;;;10.70;99.90;;;;;;4973989;28;20054;-59
2022/05/10 05:15:36;;;;;;;5.95;5.32;;;10.70;99.90;;;;;;4975506;28;20003;-61
2022/05/10 05:18:03;;;;;;;7.85;5.63;;;10.80;99.90;;;;;;4991808;28;20614;-59
2022/05/10 05:20:32;;;;;;;8.13;4.57;;;10.90;99.90;;;;;;4991503;28;20046;-58
2022/05/10 05:22:58;;;;;;;6.13;4.40;;;11.00;99.90;;;;;;4993295;28;20042;-58
2022/05/10 05:25:26;;;;;;;;;;;11.10;99.90;;;;;;4994257;28;20094;-60
2022/05/10 05:27:53;;;;;;;5.22;4.60;;;11.10;99.90;;;;;;4992877;28;20548;-61
2022/05/10 05:30:19;;;;;;;9.25;4.93;;;11.20;99.90;;;;;;4995986;28;20111;-61
2022/05/10 05:32:46;;;;;;;4.70;4.15;;;11.30;99.90;;;;;;4996909;28;20057;-61
2022/05/10 05:35:13;;;;;;;;;;;11.30;99.90;;;;;;4997258;28;20135;-58
2022/05/10 05:37:40;;;;;;;7.60;5.00;;;11.40;99.90;;;;;;4995680;28;19925;-61
2022/05/10 05:40:11;;;;;;;;;;;11.50;99.90;;;;;;4996748;28;20065;-60
2022/05/10 05:42:45;;;;;;;7.63;5.20;;;11.50;99.90;;;;;;4996639;28;19959;-60
2022/05/10 05:45:14;;;;;;;9.23;4.75;;;11.60;99.90;;;;;;4976929;28;20050;-61
2022/05/10 05:47:40;;;;;;;8.05;5.43;;;11.80;99.90;;;;;;4976239;28;20050;-60
2022/05/10 05:50:08;;;;;;;;;;;11.90;99.90;;;;;;4977658;28;20077;-60
2022/05/10 05:52:36;;;;;;;6.75;4.07;;;12.00;99.90;;;;;;4989978;28;19928;-59
2022/05/10 05:55:04;;;;;;;6.22;5.18;;;12.20;99.90;;;;;;5000361;28;20054;-60
2022/05/10 05:57:32;;;;;;;4.88;4.38;;;12.30;99.90;;;;;;4995178;28;20824;-59
2022/05/10 05:59:59;;;;;;;5.90;5.15;;;12.40;99.90;;;;;;4991612;28;20512;-62
2022/05/10 06:02:27;;;;;;;6.43;4.43;;;12.60;99.90;;;;;;4976675;28;20047;-62
2022/05/10 06:04:54;;;;;;;4.50;4.05;;;12.70;99.90;;;;;;4977294;28;20489;-66
2022/05/10 06:07:21;;;;;;;6.03;5.05;;;12.80;99.90;;;;;;4976117;28;20047;-64
2022/05/10 06:09:48;;;;;;;;;;;12.90;99.90;;;;;;4977091;28;20413;-66
2022/05/10 06:12:19;;;;;;;6.57;5.20;;;13.00;99.90;;;;;;4976721;28;19927;-62
2022/05/10 06:14:47;;;;;;;6.43;4.88;;;13.00;99.90;;;;;;4976420;28;20750;-62
2022/05/10 06:17:15;;;;;;;5.25;4.75;;;13.10;99.90;;;;;;4991316;28;20061;-61
2022/05/10 06:19:43;;;;;;;6.00;5.18;;;13.20;99.90;;;;;;4995080;28;20097;-61
2022/05/10 06:22:13;;;;;;;7.63;4.78;;;13.30;99.90;;;;;;4996034;28;20133;-62
2022/05/10 06:24:41;;;;;;;10.82;4.60;;;13.40;99.90;;;;;;4995251;28;20104;-61
2022/05/10 06:27:13;;;;;;;7.28;5.40;;;13.40;99.90;;;;;;4994598;28;20046;-63
2022/05/10 06:29:39;;;;;;;7.10;4.38;;;13.50;99.90;;;;;;4995999;28;20037;-62
2022/05/10 06:32:07;;;;;;;6.15;4.88;;;13.60;99.90;;;;;;5010125;28;20106;-63
2022/05/10 06:34:34;;;;;;;5.72;5.10;;;13.70;99.90;;;;;;4996105;28;20046;-60
2022/05/10 06:37:00;;;;;;;7.38;4.70;;;13.80;99.90;;;;;;4994472;28;20419;-57
2022/05/10 06:39:27;;;;;;;;;;;13.90;99.90;;;;;;4996042;28;20042;-59
2022/05/10 06:41:54;;;;;;;9.95;5.55;;;14.00;99.90;;;;;;4977216;28;19973;-55
2022/05/10 06:44:21;;;;;;;6.38;4.90;;;14.10;99.90;;;;;;4988587;28;20791;-55
2022/05/10 06:46:48;;;;;;;;;;;14.20;99.90;;;;;;4995581;28;20116;-52
2022/05/10 06:49:14;;;;;;;7.70;5.28;;;14.40;99.90;;;;;;4996612;28;19928;-59
2022/05/10 06:51:41;;;;;;;;;;;14.50;99.90;;;;;;4996333;28;20077;-58
2022/05/10 06:54:09;;;;;;;7.18;3.97;;;14.60;99.90;;;;;;4990769;28;20310;-58
2022/05/10 06:56:36;;;;;;;;;;;14.70;99.90;;;;;;4995384;28;20045;-54
2022/05/10 06:59:03;;;;;;;6.70;4.18;;;14.90;99.90;;;;;;4994152;28;19936;-54
2022/05/10 07:01:29;;;;;;;6.50;4.22;;;15.00;99.90;;;;;;4978077;28;20070;-55
2022/05/10 07:03:59;;;;;;;7.07;6.28;;;15.10;99.90;;;;;;4975898;28;20048;-56
2022/05/10 07:06:27;;;;;;;6.55;5.15;;;15.20;99.90;;;;;;4975821;28;20065;-55
2022/05/10 07:08:53;;;;;;;4.88;4.10;;;15.30;99.90;;;;;;4974578;28;20042;-52
2022/05/10 07:11:20;;;;;;;;;;;15.40;99.90;;;;;;4974862;28;20053;-55
2022/05/10 07:13:48;;;;;;;9.25;4.85;;;15.50;99.90;;;;;;4974470;28;20472;-62
2022/05/10 07:16:14;;;;;;;7.40;4.93;;;15.70;99.90;;;;;;4982664;28;20821;-58
2022/05/10 07:18:41;;;;;;;5.45;4.93;;;15.80;99.90;;;;;;4994017;28;20049;-53
2022/05/10 07:21:10;;;;;;;;;;;15.90;99.90;;;;;;4994965;28;20053;-51
2022/05/10 07:23:37;;;;;;;10.13;5.03;;;15.90;99.90;;;;;;4994641;28;19936;-53
2022/05/10 07:26:05;;;;;;;4.82;4.32;;;16.00;99.90;;;;;;4994787;28;20077;-53
2022/05/10 07:28:32;;;;;;;5.90;4.70;;;16.20;99.90;;;;;;4993475;28;20672;-50
2022/05/10 07:30:59;;;;;;;7.03;5.10;;;16.30;99.90;;;;;;4994598;28;20128;-56
2022/05/10 07:33:27;;;;;;;8.73;4.68;;;16.50;99.90;;;;;;4994230;28;20054;-53
2022/05/10 07:38:43;;;;;;;5.90;4.90;;;16.90;99.90;;;;;;4975664;28;20053;-57
2022/05/10 07:41:11;;;;;;;6.97;5.03;;;17.10;99.90;;;;;;4980034;28;20587;-59
2022/05/10 07:43:39;;;;;;;7.40;4.80;;;17.20;99.90;;;;;;4994732;28;20034;-54
2022/05/10 07:46:06;;;;;;;8.15;5.28;;;17.20;99.90;;;;;;4993321;28;20046;-52
2022/05/10 07:48:33;;;;;;;5.43;4.63;;;17.40;99.90;;;;;;4994151;28;20056;-63
2022/05/10 07:51:02;;;;;;;12.77;4.93;;;17.50;99.90;;;;;;4993898;28;20714;-58
2022/05/10 07:53:31;;;;;;;7.88;4.45;;;17.60;99.90;;;;;;4994059;28;20167;-54
2022/05/10 07:55:59;;;;;;;8.82;4.70;;;17.80;99.90;;;;;;4990028;28;20711;-52
2022/05/10 07:58:26;;;;;;;5.75;4.65;;;18.00;99.90;;;;;;4992704;28;20045;-52
2022/05/10 08:00:54;;;;;;;9.77;4.03;;;18.30;99.90;;;;;;4994499;28;20064;-53
2022/05/10 08:03:23;;;;;;;6.00;4.72;;;18.90;99.90;;;;;;4994683;28;20046;-54
2022/05/10 08:05:52;;;;;;;5.97;5.10;;;19.50;99.90;;;;;;4993709;28;20045;-54
2022/05/10 08:08:18;;;;;;;6.47;4.88;;;20.00;99.90;;;;;;4993644;28;20038;-49
2022/05/10 08:10:48;;;;;;;6.25;4.20;;;20.30;99.90;;;;;;4993006;28;20049;-52
2022/05/10 08:13:24;;;;;;;6.65;4.85;;;20.60;99.90;;;;;;4994368;28;20049;-49
2022/05/10 08:15:51;;;;;;;5.20;4.57;;;20.80;99.90;;;;;;4990550;28;20081;-51
2022/05/10 08:18:19;;;;;;;6.72;4.47;;;20.90;99.90;;;;;;4993579;28;20054;-53
2022/05/10 08:20:47;;;;;;;9.30;4.30;;;21.00;99.90;;;;;;4992382;28;20272;-55
2022/05/10 08:23:26;;;;;;;5.45;4.15;;;21.10;98.80;;;;;;4991157;28;20074;-54
2022/05/10 08:25:55;;;;;;;6.65;4.88;;;21.30;99.90;;;;;;4974981;28;20042;-55
2022/05/10 08:28:23;;;;;;;4.10;3.70;;;21.60;99.90;;;;;;4974699;28;20050;-56
2022/05/10 08:30:50;;;;;;;7.60;4.68;;;21.90;99.90;;;;;;4976700;28;20057;-54
2022/05/10 08:33:20;;;;;;;6.28;5.00;;;22.20;99.90;;;;;;4993271;28;20046;-56
2022/05/10 08:35:52;;;;;;;5.65;5.10;;;22.40;99.90;;;;;;4994127;28;20049;-55
2022/05/10 08:38:24;;;;;;;8.75;6.18;;;22.60;97.50;;;;;;4993316;28;20041;-55
2022/05/10 08:41:12;;;;;;;10.35;6.15;;;22.70;97.00;;;;;;4992688;28;20048;-54
2022/05/10 08:43:41;;;;;;;11.27;5.47;;;22.80;98.50;;;;;;4994286;28;20042;-54
2022/05/10 08:46:11;;;;;;;6.82;5.20;;;22.90;97.70;;;;;;4994034;28;20100;-55
2022/05/10 08:48:38;;;;;;;7.90;5.07;;;22.90;94.80;;;;;;4993642;28;20058;-54
2022/05/10 08:51:07;;;;;;;8.10;5.18;;;22.80;95.80;;;;;;4994222;28;20072;-55
2022/05/10 08:53:35;;;;;;;9.40;4.82;;;22.90;95.50;;;;;;4993892;28;20042;-54
2022/05/10 08:56:43;;;;;;;5.68;4.57;;;23.00;93.90;;;;;;4994835;28;20073;-56
2022/05/10 08:59:21;;;;;;;14.65;5.30;;;23.10;94.70;;;;;;4981995;28;20144;-55
2022/05/10 09:02:08;;;;;;;5.13;4.63;;;23.10;87.60;;;;;;4994212;28;20042;-56
2022/05/10 09:04:59;;;;;;;6.47;5.40;;;22.90;88.60;;;;;;4997263;28;20052;-58
2022/05/10 09:07:53;;;;;;;9.65;5.65;;;22.80;85.20;;;;;;4995497;28;20065;-55
2022/05/10 09:10:32;;;;;;;5.75;4.50;;;22.80;84.10;;;;;;4997405;28;20042;-56
2022/05/10 09:13:05;;;;;;;5.78;4.97;;;22.80;84.10;;;;;;4998475;28;20042;-56
2022/05/10 09:15:40;;;;;;;12.13;5.72;;;22.90;86.00;;;;;;4995478;28;20187;-54
2022/05/10 09:18:16;;;;;;;7.50;6.13;;;23.20;88.10;;;;;;4996650;28;20342;-54
2022/05/10 09:20:52;;;;;;;6.88;6.00;;;23.50;88.30;;;;;;4997127;28;20042;-55
2022/05/10 09:23:22;;;;;;;10.00;6.37;;;23.50;82.20;;;;;;5013047;28;20049;-55
2022/05/10 09:25:49;;;;;;;7.20;4.75;;;23.70;81.40;;;;;;4996210;28;20587;-60
2022/05/10 09:28:39;;;;;;;4.72;4.32;;;24.00;77.20;;;;;;4996978;28;20053;-57
2022/05/10 09:34:48;;;;;;;7.45;5.07;;;24.40;79.40;;;;;;4997597;28;20559;-54
2022/05/10 09:37:24;;;;;;;5.00;4.50;;;24.40;71.40;;;;;;4995793;28;20050;-57
2022/05/10 09:40:07;;;;;;;11.75;5.10;;;24.50;75.30;;;;;;4997538;28;20057;-54
2022/05/10 09:42:39;;;;;;;5.32;3.95;;;24.50;73.10;;;;;;4997091;28;20117;-55
2022/05/10 09:45:24;;;;;;;8.80;4.80;;;24.60;72.60;;;;;;4997153;28;20092;-58
2022/05/10 09:48:02;;;;;;;14.43;5.65;;;24.70;64.90;;;;;;4996910;28;20812;-60
2022/05/10 09:50:39;;;;;;;6.28;4.28;;;24.70;66.40;;;;;;4996936;28;20061;-59
2022/05/10 09:53:25;;;;;;;5.43;4.00;;;24.80;66.70;;;;;;4996909;28;20306;-58
2022/05/10 09:56:11;;;;;;;4.70;4.22;;;24.80;63.60;;;;;;4993577;28;20547;-60
2022/05/10 09:58:42;;;;;;;4.78;3.80;;;24.80;66.70;;;;;;4991470;28;20057;-57
2022/05/10 10:01:13;;;;;;;7.00;3.65;;;25.00;69.20;;;;;;4990545;28;20137;-61
2022/05/10 10:03:44;;;;;;;10.57;3.78;;;25.20;67.40;;;;;;4994470;28;20052;-61
2022/05/10 10:06:16;;;;;;;6.68;4.22;;;25.20;60.30;;;;;;4995912;28;20125;-60
2022/05/10 10:08:47;;;;;;;7.50;4.72;;;25.20;63.60;;;;;;4994725;28;20100;-60
2022/05/10 10:11:25;;;;;;;3.80;3.50;;;25.30;61.30;;;;;;4994519;28;20186;-62
2022/05/10 10:14:07;;;;;;;4.75;3.33;;;25.30;63.00;;;;;;4996251;28;20041;-61
2022/05/10 10:16:41;;;;;;;3.15;2.85;;;25.50;64.80;;;;;;4995305;28;20046;-62
2022/05/10 10:19:20;;;;;;;7.47;3.55;;;25.70;61.80;;;;;;4995264;28;20065;-60
2022/05/10 10:22:02;;;;;;;4.40;2.97;;;25.80;58.50;;;;;;4995971;28;20052;-59
2022/05/10 10:24:56;;;;;;;4.47;3.03;;;26.10;59.80;;;;;;4996399;28;20037;-58
2022/05/10 10:27:31;;;;;;;4.43;3.92;;;26.30;61.20;;;;;;4995197;28;20037;-62
2022/05/10 10:30:07;;;;;;;5.03;3.80;;;26.40;60.60;;;;;;4996681;28;20044;-62
2022/05/10 10:33:21;;;;;;;4.38;3.60;;;26.50;59.90;;;;;;4996217;28;20570;-59
2022/05/10 10:35:53;;;;;;;5.40;3.50;;;26.60;57.70;;;;;;4992991;28;20058;-54
2022/05/10 10:38:35;;;;;;;9.35;3.25;;;26.60;56.40;;;;;;4995336;28;20049;-53
2022/05/10 10:41:05;;;;;;;5.53;3.30;;;26.70;57.10;;;;;;4995137;28;20108;-57
2022/05/10 10:43:40;;;;;;;7.45;3.10;;;26.80;55.40;;;;;;4995500;28;20049;-54
2022/05/10 10:46:21;;;;;;;7.03;3.40;;;26.80;57.80;;;;;;4995672;28;20037;-56
2022/05/10 10:48:56;;;;;;;4.47;3.88;;;26.80;55.70;;;;;;4995444;28;20153;-60
2022/05/10 10:51:28;;;;;;;3.45;2.90;;;26.80;52.90;;;;;;4995855;28;20057;-59
2022/05/10 10:53:56;;;;;;;4.28;2.95;;;26.60;53.20;;;;;;4995892;28;20050;-59
2022/05/10 10:56:40;;;;;;;9.38;3.58;;;26.80;55.70;;;;;;4995515;28;20091;-58
2022/05/10 10:59:33;;;;;;;5.68;4.05;;;26.80;51.70;;;;;;4997664;28;20050;-58
2022/05/10 11:02:22;;;;;;;4.22;3.80;;;26.60;52.70;;;;;;4975624;28;20038;-59
2022/05/10 11:04:55;;;;;;;4.22;3.72;;;26.60;56.90;;;;;;4976769;28;20120;-61
2022/05/10 11:07:48;;;;;;;4.53;3.47;;;26.60;55.20;;;;;;4975058;28;20042;-59
2022/05/10 11:10:23;;;;;;;7.32;3.83;;;26.70;56.20;;;;;;4976404;28;20454;-60
2022/05/10 11:13:16;;;;;;;7.57;4.25;;;26.70;56.80;;;;;;4976282;28;20050;-60
2022/05/10 11:16:07;;;;;;;5.82;4.57;;;26.60;55.00;;;;;;4979708;28;20606;-59
2022/05/10 11:18:39;;;;;;;5.25;3.65;;;26.60;54.70;;;;;;4975071;28;20781;-58
2022/05/10 11:21:33;;;;;;;5.15;4.10;;;26.60;55.30;;;;;;4990971;28;20042;-57
2022/05/10 11:24:14;;;;;;;4.47;4.07;;;26.80;57.00;;;;;;4967158;28;20434;-58
2022/05/10 11:27:17;;;;;;;5.80;3.35;;;26.90;55.40;;;;;;4974999;28;20085;-58
2022/05/10 11:30:14;;;;;;;3.53;3.20;;;27.10;57.20;;;;;;4967059;28;20093;-59
2022/05/10 11:32:56;;;;;;;4.88;3.60;;;27.20;52.00;;;;;;4976001;28;20050;-58
2022/05/10 11:35:52;;;;;;;3.67;3.15;;;27.10;52.10;;;;;;4975950;28;20464;-58
2022/05/10 11:38:38;;;;;;;3.80;3.40;;;27.30;53.90;;;;;;4974685;28;20105;-57
2022/05/10 11:41:32;;;;;;;4.72;3.13;;;27.50;52.10;;;;;;4985613;28;20103;-59
2022/05/10 11:44:20;;;;;;;6.05;3.65;;;27.50;54.30;;;;;;4993652;28;20057;-60
2022/05/10 11:47:18;;;;;;;4.93;4.20;;;27.50;52.80;;;;;;4994449;28;20123;-60
2022/05/10 11:49:45;;;;;;;6.85;3.30;;;27.40;51.80;;;;;;4995119;28;20132;-58
2022/05/10 11:52:27;;;;;;;5.82;3.72;;;27.30;54.50;;;;;;4995066;28;20057;-60
2022/05/10 11:55:23;;;;;;;3.70;3.05;;;27.40;54.30;;;;;;4993726;28;20680;-56
2022/05/10 11:57:58;;;;;;;7.13;3.97;;;27.40;53.80;;;;;;4993300;28;20763;-57
2022/05/10 12:00:30;;;;;;;6.70;3.53;;;26.90;51.40;;;;;;4995720;28;20057;-57
2022/05/10 12:03:09;;;;;;;3.53;3.22;;;26.50;51.10;;;;;;4994556;28;20053;-57
2022/05/10 12:05:39;;;;;;;3.97;3.67;;;26.00;52.00;;;;;;4994052;28;20112;-57
2022/05/10 12:08:19;;;;;;;4.28;3.00;;;25.90;55.70;;;;;;4993887;28;20690;-55
2022/05/10 12:10:47;;;;;;;3.22;2.75;;;25.90;53.50;;;;;;4994638;28;21000;-58
2022/05/10 12:22:58;;;;;;;3.63;2.08;;;26.20;48.70;;;;;;4994065;28;20065;-58
2022/05/10 12:25:44;;;;;;;4.15;2.72;;;26.30;48.90;;;;;;4993913;28;20269;-60
2022/05/10 12:28:57;;;;;;;4.05;2.80;;;26.50;52.20;;;;;;4990684;28;20054;-59
2022/05/10 12:31:33;;;;;;;4.93;2.47;;;26.60;50.80;;;;;;4992883;28;20054;-59
2022/05/10 12:34:08;;;;;;;5.25;2.30;;;26.90;54.10;;;;;;4994351;28;20732;-60
2022/05/10 12:36:41;;;;;;;2.65;2.30;;;27.10;49.50;;;;;;4994610;28;20045;-60
2022/05/10 12:39:30;;;;;;;2.38;2.17;;;27.30;48.00;;;;;;4996069;28;20437;-59
2022/05/10 12:42:07;;;;;;;3.20;2.33;;;27.60;50.00;;;;;;4998168;28;20042;-60
2022/05/10 12:44:40;;;;;;;;;;;27.70;51.50;;;;;;4998574;28;20034;-60
2022/05/10 12:47:16;;;;;;;2.20;2.05;;;27.90;46.90;;;;;;4997516;28;19936;-59
2022/05/10 12:50:18;;;;;;;2.63;2.42;;;28.00;47.80;;;;;;4997896;28;20038;-60
2022/05/10 12:52:47;;;;;;;3.70;2.50;;;27.90;43.40;;;;;;4998700;28;20504;-60
2022/05/10 12:55:27;;;;;;;2.85;2.33;;;27.90;46.90;;;;;;4997970;28;20622;-60
2022/05/10 12:58:06;;;;;;;3.75;1.90;;;28.10;48.10;;;;;;4998037;28;20108;-59
2022/05/10 13:00:40;;;;;;;3.55;2.20;;;28.30;44.90;;;;;;4998695;28;20045;-60
2022/05/10 13:03:15;;;;;;;2.33;2.13;;;28.40;45.80;;;;;;4997757;28;20038;-59
2022/05/10 13:05:51;;;;;;;2.80;1.70;;;28.50;42.60;;;;;;4998050;28;20057;-60
2022/05/10 13:08:38;;;;;;;1.83;1.73;;;28.50;40.40;;;;;;4996949;28;20046;-61
2022/05/10 13:11:31;;;;;;;1.73;1.52;;;28.50;39.20;;;;;;4997992;28;20053;-61
2022/05/10 13:14:00;;;;;;;1.58;1.48;;;28.40;38.90;;;;;;4997826;28;20197;-60
2022/05/10 13:16:28;;;;;;;6.75;1.90;;;28.40;40.90;;;;;;4997583;28;20042;-58
2022/05/10 13:18:56;;;;;;;1.90;1.80;;;28.30;42.30;;;;;;4997372;28;20656;-61
2022/05/10 13:21:25;;;;;;;4.90;2.03;;;28.40;42.90;;;;;;4997631;28;20053;-61
2022/05/10 13:23:58;;;;;;;3.72;2.00;;;28.50;41.80;;;;;;4998004;28;20045;-60
2022/05/10 13:26:29;;;;;;;3.20;2.03;;;28.50;40.50;;;;;;4996623;28;20559;-59
2022/05/10 13:28:58;;;;;;;2.90;1.92;;;28.50;42.00;;;;;;4996705;28;20049;-60
2022/05/10 13:31:34;;;;;;;2.03;1.92;;;28.50;39.90;;;;;;4997370;28;20088;-61
2022/05/10 13:34:19;;;;;;;2.43;2.30;;;28.60;39.20;;;;;;4997346;28;20073;-59
2022/05/10 13:36:48;;;;;;;2.13;2.00;;;28.60;40.20;;;;;;4996915;28;20128;-61
2022/05/10 13:39:24;;;;;;;2.55;2.15;;;28.70;43.00;;;;;;4997000;28;20050;-59
2022/05/10 13:41:55;;;;;;;2.17;1.90;;;28.80;41.40;;;;;;4997679;28;20053;-59
2022/05/10 13:44:25;;;;;;;2.83;1.55;;;28.90;39.10;;;;;;4996853;28;20057;-62
2022/05/10 13:47:04;;;;;;;5.55;2.10;;;28.80;39.80;;;;;;4997358;28;20057;-62
2022/05/10 13:49:42;;;;;;;2.45;1.45;;;28.70;38.40;;;;;;4996294;28;20062;-61
2022/05/10 13:52:23;;;;;;;2.55;1.50;;;28.60;38.40;;;;;;4997378;28;20046;-59
2022/05/10 13:54:55;;;;;;;2.30;2.10;;;28.50;39.10;;;;;;4997826;28;20046;-59